Time;durP1;ratioP1;P1;durP2;ratioP2;P2;SDS_P1;SDS_P2;PMS_P1;PMS_P2;Temp;Humidity;BMP_temperature;BMP_pressure;BME280_temperature;BME280_humidity;BME280_pressure;Samples;Min_cycle;Max_cycle;Signal;HPM_P1;HPM_P2
2022/06/06 00:01:43;;;;;;;13.10;5.72;;;14.40;99.90;;;;;;5138617;27;20078;-80
2022/06/06 00:04:10;;;;;;;13.60;5.95;;;14.40;99.90;;;;;;5122990;27;20070;-79
2022/06/06 00:06:36;;;;;;;12.13;5.93;;;14.40;99.90;;;;;;5135986;27;20124;-79
2022/06/06 00:09:02;;;;;;;12.55;5.72;;;14.40;99.90;;;;;;5135764;27;20061;-79
2022/06/06 00:11:32;;;;;;;13.70;5.72;;;14.30;99.90;;;;;;5135065;27;20490;-78
2022/06/06 00:13:58;;;;;;;14.43;5.82;;;14.30;99.90;;;;;;5118283;27;20406;-78
2022/06/06 00:16:23;;;;;;;10.77;5.10;;;14.30;99.90;;;;;;5116987;27;20042;-78
2022/06/06 00:18:49;;;;;;;10.43;5.25;;;14.30;99.90;;;;;;5117557;27;20040;-79
2022/06/06 00:21:15;;;;;;;14.10;5.38;;;14.20;99.90;;;;;;5135467;27;20099;-79
2022/06/06 00:23:41;;;;;;;10.38;5.70;;;14.20;99.90;;;;;;5141816;27;20409;-78
2022/06/06 00:26:09;;;;;;;15.05;5.40;;;14.20;99.90;;;;;;5136777;27;20072;-78
2022/06/06 00:28:35;;;;;;;8.85;4.95;;;14.20;99.90;;;;;;5156059;27;20366;-78
2022/06/06 00:34:48;;;;;;;9.98;5.38;;;14.30;99.90;;;;;;5156213;27;20122;-79
2022/06/06 00:36:32;;;;;;;10.27;5.25;;;14.10;99.90;;;;;;5156371;27;20047;-78
2022/06/06 00:38:58;;;;;;;8.57;4.50;;;14.10;99.90;;;;;;5135766;27;20038;-79
2022/06/06 00:41:23;;;;;;;8.60;4.63;;;14.10;99.90;;;;;;5136505;27;20451;-79
2022/06/06 00:44:20;;;;;;;11.63;5.40;;;14.10;99.90;;;;;;5137451;27;20046;-80
2022/06/06 00:46:57;;;;;;;7.13;4.15;;;14.10;99.90;;;;;;5135475;27;20094;-80
2022/06/06 00:49:33;;;;;;;12.57;5.45;;;14.10;99.90;;;;;;5137006;27;20042;-80
2022/06/06 00:52:00;;;;;;;14.52;5.70;;;14.10;99.90;;;;;;5156275;27;20090;-79
2022/06/06 00:54:26;;;;;;;9.20;4.95;;;14.10;99.90;;;;;;5123573;27;20091;-80
2022/06/06 00:57:08;;;;;;;12.15;5.32;;;14.20;99.90;;;;;;5117888;27;20495;-81
2022/06/06 00:59:37;;;;;;;10.85;5.22;;;14.10;99.90;;;;;;5135042;27;20504;-80
2022/06/06 01:02:04;;;;;;;13.27;5.60;;;14.10;99.90;;;;;;5134148;27;20078;-80
2022/06/06 01:04:30;;;;;;;12.40;5.50;;;14.10;99.90;;;;;;5116680;27;20049;-80
2022/06/06 01:06:57;;;;;;;11.88;5.78;;;14.00;99.90;;;;;;5135141;27;20396;-80
2022/06/06 01:09:24;;;;;;;12.52;5.32;;;14.00;99.90;;;;;;5116537;27;20050;-81
2022/06/06 01:12:02;;;;;;;11.40;4.97;;;14.00;99.90;;;;;;5116365;27;20092;-80
2022/06/06 01:14:34;;;;;;;14.73;5.85;;;13.90;99.90;;;;;;5115644;27;20367;-79
2022/06/06 01:17:05;;;;;;;13.77;5.85;;;13.90;99.90;;;;;;5115956;27;20133;-79
2022/06/06 01:20:02;;;;;;;13.18;5.82;;;13.90;99.90;;;;;;5116467;27;20073;-79
2022/06/06 01:22:39;;;;;;;13.02;5.72;;;13.80;99.90;;;;;;5134342;27;20143;-79
2022/06/06 01:25:36;;;;;;;10.32;5.88;;;13.80;99.90;;;;;;5152310;27;20050;-79
2022/06/06 01:28:22;;;;;;;13.70;5.35;;;13.80;99.90;;;;;;5136888;27;20542;-79
2022/06/06 01:30:52;;;;;;;10.85;5.68;;;13.70;99.90;;;;;;5137420;27;20490;-80
2022/06/06 01:33:18;;;;;;;14.23;5.85;;;13.70;99.90;;;;;;5155311;27;20086;-79
2022/06/06 01:35:47;;;;;;;9.40;5.30;;;13.70;99.90;;;;;;5136585;27;20051;-79
2022/06/06 01:38:15;;;;;;;9.30;5.85;;;13.70;99.90;;;;;;5154619;27;20046;-79
2022/06/06 01:40:54;;;;;;;10.77;5.63;;;13.70;99.90;;;;;;5135859;27;20043;-79
2022/06/06 01:43:34;;;;;;;12.35;5.95;;;13.70;99.90;;;;;;5154651;27;20050;-80
2022/06/06 01:46:13;;;;;;;12.82;6.07;;;13.70;99.90;;;;;;5135457;27;20095;-79
2022/06/06 01:48:42;;;;;;;10.98;5.63;;;13.70;99.90;;;;;;5136574;27;20091;-79
2022/06/06 01:51:18;;;;;;;12.90;5.97;;;13.70;99.90;;;;;;5153934;27;20039;-79
2022/06/06 01:53:45;;;;;;;9.45;5.68;;;13.70;99.90;;;;;;5148845;27;20114;-79
2022/06/06 01:56:17;;;;;;;16.15;5.63;;;13.70;99.90;;;;;;5115320;27;20047;-80
2022/06/06 01:58:43;;;;;;;9.32;5.22;;;13.70;99.90;;;;;;5114743;27;20032;-79
2022/06/06 02:01:10;;;;;;;11.75;5.45;;;13.70;99.90;;;;;;5133530;27;20152;-80
2022/06/06 02:03:36;;;;;;;9.23;5.35;;;13.70;99.90;;;;;;5136995;27;20043;-79
2022/06/06 02:06:04;;;;;;;9.05;5.38;;;13.70;99.90;;;;;;5133991;27;20062;-80
2022/06/06 02:08:31;;;;;;;9.95;5.00;;;13.80;99.90;;;;;;5115787;27;20043;-79
2022/06/06 02:10:57;;;;;;;10.82;5.28;;;13.80;99.90;;;;;;5133211;27;20047;-80
2022/06/06 02:13:23;;;;;;;11.85;5.03;;;13.80;99.90;;;;;;5133206;27;20043;-82
2022/06/06 02:15:49;;;;;;;9.77;5.32;;;13.80;99.90;;;;;;5115167;27;20054;-80
2022/06/06 02:18:14;;;;;;;;;;;13.80;99.90;;;;;;5132887;27;20027;-80
2022/06/06 02:20:40;;;;;;;7.28;4.28;;;13.80;99.90;;;;;;5115533;27;19919;-80
2022/06/06 02:23:07;;;;;;;9.73;4.82;;;13.70;99.90;;;;;;5133283;27;20043;-80
2022/06/06 02:25:34;;;;;;;9.80;5.20;;;13.70;99.90;;;;;;5135011;27;20046;-79
2022/06/06 02:28:01;;;;;;;8.35;4.68;;;13.80;99.90;;;;;;5153780;27;20074;-80
2022/06/06 02:30:32;;;;;;;9.25;4.70;;;13.80;99.90;;;;;;5135454;27;20043;-80
2022/06/06 02:32:59;;;;;;;7.80;4.65;;;13.80;99.90;;;;;;5153389;27;20039;-80
2022/06/06 02:35:33;;;;;;;11.07;5.10;;;13.70;99.90;;;;;;5154242;27;20046;-79
2022/06/06 02:37:59;;;;;;;9.32;5.22;;;13.80;99.90;;;;;;5154121;27;20035;-80
2022/06/06 02:40:27;;;;;;;8.95;4.90;;;13.70;99.90;;;;;;5118654;27;20051;-80
2022/06/06 02:42:54;;;;;;;8.77;4.55;;;13.70;99.90;;;;;;5133670;27;20064;-79
2022/06/06 02:45:20;;;;;;;8.13;4.78;;;13.70;99.90;;;;;;5132705;27;20055;-79
2022/06/06 02:47:49;;;;;;;8.00;4.55;;;13.70;99.90;;;;;;5113746;27;20047;-80
2022/06/06 02:50:18;;;;;;;8.40;4.28;;;13.70;99.90;;;;;;5114703;28;20512;-80
2022/06/06 02:52:44;;;;;;;8.55;4.50;;;13.60;99.90;;;;;;5133216;27;20039;-80
2022/06/06 02:55:11;;;;;;;11.40;4.53;;;13.60;99.90;;;;;;5150212;27;20039;-80
2022/06/06 02:57:42;;;;;;;9.02;4.57;;;13.70;99.90;;;;;;5153496;27;20088;-80
2022/06/06 03:00:15;;;;;;;10.10;4.25;;;13.70;99.90;;;;;;5133975;27;20043;-80
2022/06/06 03:02:40;;;;;;;7.78;4.32;;;13.60;99.90;;;;;;5135235;27;20055;-80
2022/06/06 03:05:08;;;;;;;8.45;3.90;;;13.60;99.90;;;;;;5135010;27;20046;-80
2022/06/06 03:07:53;;;;;;;6.20;3.95;;;13.70;99.90;;;;;;5134544;27;20046;-80
2022/06/06 03:10:54;;;;;;;7.53;3.88;;;13.60;99.90;;;;;;5132914;27;20427;-80
2022/06/06 03:13:34;;;;;;;7.78;3.83;;;13.60;99.90;;;;;;5116853;27;20062;-80
2022/06/06 03:22:46;;;;;;;11.48;4.20;;;13.60;99.90;;;;;;5153265;27;20085;-80
2022/06/06 03:25:16;;;;;;;8.80;4.63;;;13.60;99.90;;;;;;5116508;28;20062;-80
2022/06/06 03:28:15;;;;;;;7.28;4.50;;;13.60;99.90;;;;;;5114307;28;20047;-79
2022/06/06 03:31:08;;;;;;;11.35;4.50;;;13.60;99.90;;;;;;5114448;28;20047;-79
2022/06/06 03:33:47;;;;;;;6.85;4.25;;;13.60;99.90;;;;;;5132495;28;20548;-79
2022/06/06 03:36:30;;;;;;;8.38;4.63;;;13.60;99.90;;;;;;5132082;27;20047;-79
2022/06/06 03:39:06;;;;;;;9.05;4.88;;;13.70;99.90;;;;;;5148839;27;20031;-78
2022/06/06 03:41:47;;;;;;;12.10;5.33;;;13.60;99.90;;;;;;5114371;28;20050;-79
2022/06/06 03:44:46;;;;;;;8.27;5.18;;;13.70;99.90;;;;;;5131284;28;20328;-78
2022/06/06 03:47:29;;;;;;;9.45;5.50;;;13.60;99.90;;;;;;5113667;28;20099;-79
2022/06/06 03:50:23;;;;;;;11.75;5.93;;;13.60;99.90;;;;;;5131754;28;20545;-79
2022/06/06 03:53:05;;;;;;;10.88;5.97;;;13.60;99.90;;;;;;5102456;28;20055;-79
2022/06/06 03:55:41;;;;;;;10.75;5.38;;;13.70;99.90;;;;;;5152152;27;20512;-80
2022/06/06 03:58:10;;;;;;;12.65;5.63;;;13.70;99.90;;;;;;5133647;27;20060;-80
2022/06/06 04:00:39;;;;;;;9.13;5.70;;;13.70;99.90;;;;;;5152911;27;20039;-80
2022/06/06 04:03:06;;;;;;;14.52;5.95;;;13.70;99.90;;;;;;5151987;27;20042;-80
2022/06/06 04:05:36;;;;;;;9.73;6.20;;;13.70;99.90;;;;;;5153078;27;20115;-78
2022/06/06 04:08:02;;;;;;;10.55;7.13;;;13.70;99.90;;;;;;5134008;27;20096;-79
2022/06/06 04:10:58;;;;;;;9.43;6.10;;;13.70;99.90;;;;;;5134532;27;20119;-79
2022/06/06 04:14:09;;;;;;;12.43;6.20;;;13.70;99.90;;;;;;5137964;27;20375;-79
2022/06/06 04:16:47;;;;;;;8.52;6.45;;;13.60;99.90;;;;;;5138300;27;20043;-79
2022/06/06 04:19:21;;;;;;;10.55;6.78;;;13.60;99.90;;;;;;5135237;27;20051;-80
2022/06/06 04:22:16;;;;;;;9.50;6.57;;;13.70;99.90;;;;;;5156398;27;20460;-79
2022/06/06 04:25:07;;;;;;;10.30;6.85;;;13.60;99.90;;;;;;5155784;27;20054;-80
2022/06/06 04:27:52;;;;;;;7.82;5.80;;;13.60;99.90;;;;;;5135763;27;20038;-80
2022/06/06 04:30:32;;;;;;;10.35;6.85;;;13.70;99.90;;;;;;5138125;27;20519;-80
2022/06/06 04:32:58;;;;;;;10.95;6.93;;;13.70;99.90;;;;;;5137555;27;20042;-80
2022/06/06 04:36:09;;;;;;;11.20;6.45;;;13.70;99.90;;;;;;5137636;27;20493;-80
2022/06/06 04:38:52;;;;;;;12.55;6.93;;;13.70;99.90;;;;;;5136881;27;20049;-80
2022/06/06 04:41:32;;;;;;;10.75;6.30;;;13.70;99.90;;;;;;5135411;27;20042;-81
2022/06/06 04:44:25;;;;;;;11.77;7.05;;;13.70;99.90;;;;;;5156013;27;20049;-81
2022/06/06 04:46:55;;;;;;;12.05;6.60;;;13.70;99.90;;;;;;5136532;27;20051;-81
2022/06/06 04:49:22;;;;;;;13.07;6.75;;;13.70;99.90;;;;;;5137237;27;20065;-81
2022/06/06 04:51:50;;;;;;;11.85;7.18;;;13.70;99.90;;;;;;5137353;27;20038;-81
2022/06/06 04:54:19;;;;;;;11.68;6.50;;;13.70;99.90;;;;;;5154793;27;20042;-81
2022/06/06 04:56:47;;;;;;;12.00;6.25;;;13.70;99.90;;;;;;5137470;27;20057;-81
2022/06/06 04:59:14;;;;;;;12.52;6.43;;;13.70;99.90;;;;;;5124891;27;20051;-81
2022/06/06 05:01:40;;;;;;;9.80;6.72;;;13.80;99.90;;;;;;5115590;27;20130;-81
2022/06/06 05:04:09;;;;;;;11.88;6.38;;;13.80;99.90;;;;;;5134757;27;20038;-80
2022/06/06 05:07:12;;;;;;;12.00;6.30;;;13.80;99.90;;;;;;5115730;27;20046;-80
2022/06/06 05:10:06;;;;;;;4.90;3.22;;;13.80;99.90;;;;;;5134865;27;20047;-79
2022/06/06 05:12:52;;;;;;;4.55;2.20;;;14.00;99.90;;;;;;5147341;27;20042;-79
2022/06/06 05:15:34;;;;;;;3.78;2.25;;;14.00;99.90;;;;;;5136109;27;20482;-80
2022/06/06 05:18:23;;;;;;;4.78;1.90;;;13.90;99.90;;;;;;5154890;27;20039;-79
2022/06/06 05:21:00;;;;;;;5.32;2.15;;;13.90;99.90;;;;;;5124029;27;20074;-78
2022/06/06 05:23:34;;;;;;;5.22;2.30;;;13.90;99.90;;;;;;5116160;27;20046;-79
2022/06/06 05:26:19;;;;;;;7.18;2.90;;;14.00;99.90;;;;;;5134079;27;20047;-80
2022/06/06 05:28:54;;;;;;;4.13;2.35;;;13.80;99.90;;;;;;5133339;27;20474;-80
2022/06/06 05:31:25;;;;;;;4.10;2.30;;;13.80;99.90;;;;;;5115876;27;20064;-80
2022/06/06 05:34:02;;;;;;;3.45;1.90;;;13.80;99.90;;;;;;5115833;27;20043;-80
2022/06/06 05:36:43;;;;;;;5.38;2.45;;;13.80;99.90;;;;;;5115260;27;20054;-79
2022/06/06 05:39:30;;;;;;;5.95;2.90;;;13.70;99.90;;;;;;5115557;27;20136;-80
2022/06/06 05:42:40;;;;;;;6.65;2.97;;;13.70;99.90;;;;;;5141112;27;20049;-80
2022/06/06 05:45:43;;;;;;;6.68;2.92;;;13.60;99.90;;;;;;5053441;28;20067;-81
2022/06/06 05:48:28;;;;;;;8.93;3.20;;;13.50;99.90;;;;;;5135873;27;20042;-78
2022/06/06 05:51:25;;;;;;;5.68;3.03;;;13.60;99.90;;;;;;5154229;27;20493;-80
2022/06/06 05:54:02;;;;;;;8.43;3.78;;;13.60;99.90;;;;;;5155146;27;20039;-78
2022/06/06 05:56:42;;;;;;;6.35;3.42;;;13.60;99.90;;;;;;5153740;27;20047;-79
2022/06/06 05:59:30;;;;;;;6.30;3.13;;;13.60;99.90;;;;;;5136008;27;20485;-79
2022/06/06 06:02:13;;;;;;;5.55;2.80;;;13.60;99.90;;;;;;5144596;27;20046;-81
2022/06/06 06:05:08;;;;;;;6.40;3.22;;;13.60;99.90;;;;;;5144314;27;20035;-80
2022/06/06 06:07:52;;;;;;;7.40;3.35;;;13.60;99.90;;;;;;5124187;27;20039;-83
2022/06/06 06:10:42;;;;;;;6.07;3.10;;;13.60;99.90;;;;;;5132967;27;20126;-81
2022/06/06 06:13:20;;;;;;;5.72;3.08;;;13.50;99.90;;;;;;5120550;27;20072;-81
2022/06/06 06:15:46;;;;;;;6.22;3.03;;;13.50;99.90;;;;;;5142938;27;20039;-80
2022/06/06 06:18:36;;;;;;;6.50;3.20;;;13.50;99.90;;;;;;5125262;27;20505;-80
2022/06/06 06:21:17;;;;;;;6.57;2.83;;;13.40;99.90;;;;;;5147631;27;20135;-79
2022/06/06 06:23:54;;;;;;;7.88;2.92;;;13.40;99.90;;;;;;5135631;27;20038;-81
2022/06/06 06:26:20;;;;;;;8.25;3.40;;;13.40;99.90;;;;;;5135146;27;20073;-80
2022/06/06 06:28:49;;;;;;;10.43;3.22;;;13.40;99.90;;;;;;5134274;27;20564;-79
2022/06/06 06:31:31;;;;;;;6.15;3.13;;;13.40;99.90;;;;;;5130076;27;20035;-79
2022/06/06 06:34:24;;;;;;;6.13;3.20;;;13.40;99.90;;;;;;5113533;27;20047;-79
2022/06/06 06:37:00;;;;;;;8.05;2.65;;;13.30;99.90;;;;;;5113565;27;20047;-79
2022/06/06 06:39:47;;;;;;;9.32;2.92;;;13.50;99.90;;;;;;5132231;27;20045;-79
2022/06/06 06:42:34;;;;;;;8.23;2.90;;;13.50;99.90;;;;;;5134637;27;20079;-79
2022/06/06 06:45:11;;;;;;;6.97;2.80;;;13.40;99.90;;;;;;5133976;27;20351;-80
2022/06/06 06:47:37;;;;;;;7.18;2.90;;;13.40;99.90;;;;;;5114475;28;20094;-81
2022/06/06 06:50:21;;;;;;;;;;;13.40;99.90;;;;;;5133449;27;20066;-80
2022/06/06 06:53:25;;;;;;;12.30;3.08;;;13.40;99.90;;;;;;5132011;27;20378;-80
2022/06/06 06:55:50;;;;;;;6.22;2.13;;;13.40;99.90;;;;;;5114399;28;20402;-80
2022/06/06 06:58:26;;;;;;;;;;;13.40;99.90;;;;;;5127617;27;20046;-81
2022/06/06 07:01:05;;;;;;;5.25;2.15;;;13.40;99.90;;;;;;5134782;27;20064;-81
2022/06/06 07:09:46;;;;;;;5.50;2.22;;;13.60;99.90;;;;;;5131560;27;20042;-83
2022/06/06 07:12:31;;;;;;;5.05;2.10;;;13.70;99.90;;;;;;5115137;27;20038;-83
2022/06/06 07:15:13;;;;;;;6.30;2.03;;;13.80;99.90;;;;;;5142675;27;20042;-81
2022/06/06 07:17:46;;;;;;;4.47;2.15;;;13.90;99.90;;;;;;5153311;27;20042;-81
2022/06/06 07:20:14;;;;;;;6.07;2.03;;;14.00;99.90;;;;;;5134136;27;20043;-81
2022/06/06 07:22:59;;;;;;;4.78;1.80;;;14.10;99.90;;;;;;5132645;27;20062;-82
2022/06/06 07:25:29;;;;;;;5.13;1.73;;;14.30;99.90;;;;;;5134836;27;20379;-80
2022/06/06 07:27:57;;;;;;;3.80;1.98;;;14.30;99.90;;;;;;5117076;28;20105;-80
2022/06/06 07:30:25;;;;;;;5.78;2.30;;;14.40;99.90;;;;;;5132336;28;20043;-79
2022/06/06 07:33:26;;;;;;;4.75;2.05;;;14.40;99.90;;;;;;5119715;27;20047;-79
2022/06/06 07:36:27;;;;;;;4.70;1.80;;;14.70;99.90;;;;;;5134265;27;20481;-81
2022/06/06 07:38:59;;;;;;;4.30;1.95;;;14.60;99.90;;;;;;5056048;28;20045;-76
2022/06/06 07:41:27;;;;;;;3.63;1.80;;;14.70;99.90;;;;;;5051718;28;20045;-78
2022/06/06 07:44:01;;;;;;;4.70;1.55;;;14.70;99.90;;;;;;5059818;28;20051;-76
2022/06/06 07:46:38;;;;;;;3.92;1.80;;;15.00;99.90;;;;;;5078460;28;20051;-87
2022/06/06 07:49:09;;;;;;;5.63;2.20;;;15.20;99.90;;;;;;5104340;28;20047;-76
2022/06/06 07:51:43;;;;;;;4.60;1.98;;;15.20;99.90;;;;;;5102224;28;20044;-76
2022/06/06 07:54:29;;;;;;;5.93;2.30;;;15.20;99.90;;;;;;5102276;28;20411;-75
2022/06/06 07:57:16;;;;;;;5.70;2.05;;;15.10;99.90;;;;;;5102938;28;20143;-81
2022/06/06 08:00:03;;;;;;;4.93;2.40;;;15.10;99.90;;;;;;5106575;28;20043;-77
2022/06/06 08:02:31;;;;;;;3.72;2.05;;;15.10;99.90;;;;;;5112527;28;20075;-73
2022/06/06 08:05:31;;;;;;;4.15;2.20;;;15.20;99.90;;;;;;5112936;28;20521;-78
2022/06/06 08:08:25;;;;;;;5.00;2.13;;;15.20;99.90;;;;;;5084407;28;20098;-75
2022/06/06 08:10:50;;;;;;;5.30;2.40;;;15.30;99.90;;;;;;5107338;28;20044;-76
2022/06/06 08:13:36;;;;;;;6.82;1.75;;;15.40;99.90;;;;;;5112805;28;20071;-76
2022/06/06 08:16:22;;;;;;;4.18;1.95;;;15.60;99.90;;;;;;5108886;28;20156;-80
2022/06/06 08:19:15;;;;;;;5.15;1.95;;;15.90;99.90;;;;;;5097847;28;20048;-87
2022/06/06 08:21:43;;;;;;;8.10;2.08;;;16.20;99.90;;;;;;5101598;28;20039;-82
2022/06/06 08:24:26;;;;;;;5.00;2.00;;;16.20;99.90;;;;;;5112616;28;20047;-79
2022/06/06 08:26:54;;;;;;;5.53;2.08;;;16.20;99.90;;;;;;5115117;28;20096;-74
2022/06/06 08:29:20;;;;;;;4.10;2.13;;;16.10;99.90;;;;;;5099905;28;20139;-77
2022/06/06 08:31:46;;;;;;;5.85;2.30;;;16.20;99.90;;;;;;5093547;28;20040;-79
2022/06/06 08:34:12;;;;;;;4.47;2.08;;;16.40;99.90;;;;;;5096005;28;20039;-77
2022/06/06 08:36:57;;;;;;;8.65;2.65;;;16.30;99.90;;;;;;5093497;28;20051;-75
2022/06/06 08:40:01;;;;;;;5.07;2.75;;;16.10;99.90;;;;;;5092691;28;20039;-74
2022/06/06 08:42:35;;;;;;;5.03;2.35;;;15.90;99.90;;;;;;5093183;28;20487;-75
2022/06/06 08:45:34;;;;;;;5.85;2.60;;;16.10;99.90;;;;;;5119198;27;20080;-73
2022/06/06 08:48:23;;;;;;;5.53;2.35;;;16.30;99.90;;;;;;5136912;27;20175;-73
2022/06/06 08:51:04;;;;;;;5.15;3.03;;;16.20;99.90;;;;;;5155957;27;20042;-79
2022/06/06 08:53:58;;;;;;;8.20;3.10;;;16.10;99.90;;;;;;5143223;27;20047;-78
2022/06/06 08:56:28;;;;;;;5.68;2.67;;;15.90;99.90;;;;;;5119631;27;20836;-84
2022/06/06 08:59:31;;;;;;;7.07;3.15;;;15.90;99.90;;;;;;5128940;27;20115;-79
2022/06/06 09:02:46;;;;;;;8.73;3.42;;;15.70;99.90;;;;;;5119417;27;20047;-85
2022/06/06 09:05:49;;;;;;;7.05;3.40;;;15.80;99.90;;;;;;5139392;27;20197;-74
2022/06/06 09:08:33;;;;;;;9.20;3.20;;;15.90;99.90;;;;;;5126228;27;20050;-73
2022/06/06 09:11:24;;;;;;;6.13;3.58;;;15.90;99.90;;;;;;5125158;27;20133;-72
2022/06/06 09:14:17;;;;;;;9.40;4.30;;;16.00;99.90;;;;;;5124482;27;20073;-72
2022/06/06 09:17:07;;;;;;;6.82;4.15;;;15.90;99.90;;;;;;5127222;27;20443;-74
2022/06/06 09:19:54;;;;;;;5.78;3.30;;;15.70;99.90;;;;;;5148226;27;20043;-71
2022/06/06 09:22:35;;;;;;;10.25;4.03;;;15.60;99.90;;;;;;5152389;27;20083;-78
2022/06/06 09:25:13;;;;;;;7.50;3.28;;;15.30;99.90;;;;;;5121602;27;20050;-73
2022/06/06 09:28:13;;;;;;;4.57;2.70;;;15.10;99.90;;;;;;5124481;27;20061;-76
2022/06/06 09:30:59;;;;;;;6.47;2.75;;;14.60;99.90;;;;;;5124298;27;20102;-72
2022/06/06 09:33:58;;;;;;;4.75;2.47;;;14.40;99.90;;;;;;5124460;27;20043;-74
2022/06/06 09:36:52;;;;;;;6.82;3.67;;;14.10;99.90;;;;;;5128356;27;20489;-72
2022/06/06 09:39:38;;;;;;;5.47;2.70;;;14.10;99.90;;;;;;5147239;27;20054;-77
2022/06/06 09:42:07;;;;;;;5.25;2.33;;;13.80;99.90;;;;;;5144949;27;20081;-78
2022/06/06 09:45:00;;;;;;;4.50;2.63;;;13.70;99.90;;;;;;5126456;27;20054;-74
2022/06/06 09:47:43;;;;;;;5.88;3.10;;;13.60;99.90;;;;;;5146999;27;20049;-76
2022/06/06 09:50:44;;;;;;;13.45;4.63;;;13.50;99.90;;;;;;5152041;27;20034;-73
2022/06/06 09:53:33;;;;;;;7.05;3.80;;;13.70;99.90;;;;;;5139764;27;20127;-81
2022/06/06 09:59:16;;;;;;;9.70;4.22;;;13.70;99.90;;;;;;5144112;27;20047;-74
2022/06/06 10:02:07;;;;;;;8.65;4.53;;;13.70;99.90;;;;;;5120564;27;20061;-76
2022/06/06 10:04:45;;;;;;;8.15;4.40;;;13.80;99.90;;;;;;5123367;27;20039;-74
2022/06/06 10:07:29;;;;;;;8.43;5.57;;;13.90;99.90;;;;;;5124877;27;20122;-76
2022/06/06 10:09:57;;;;;;;7.53;4.85;;;14.00;99.90;;;;;;5118125;27;20103;-78
2022/06/06 10:12:29;;;;;;;8.77;4.80;;;14.10;99.90;;;;;;5120752;27;20043;-76
2022/06/06 10:15:07;;;;;;;7.28;3.35;;;14.10;99.90;;;;;;5125742;27;20134;-75
2022/06/06 10:17:57;;;;;;;4.65;2.00;;;14.10;99.90;;;;;;5124435;27;20394;-75
2022/06/06 10:20:37;;;;;;;4.28;1.90;;;13.90;99.90;;;;;;5124335;27;20076;-74
2022/06/06 10:23:19;;;;;;;4.93;1.85;;;14.10;99.90;;;;;;5118867;27;20043;-72
2022/06/06 10:25:56;;;;;;;4.03;2.00;;;13.60;99.90;;;;;;5122464;27;20043;-73
2022/06/06 10:28:35;;;;;;;8.77;2.30;;;13.50;99.90;;;;;;5126081;27;20042;-74
2022/06/06 10:31:10;;;;;;;4.32;2.28;;;13.50;99.90;;;;;;5135775;27;20534;-77
2022/06/06 10:33:50;;;;;;;10.93;4.82;;;13.70;99.90;;;;;;5151481;27;20039;-75
2022/06/06 10:36:52;;;;;;;7.10;3.95;;;13.70;99.90;;;;;;5131055;27;20053;-76
2022/06/06 10:39:21;;;;;;;7.97;3.55;;;14.90;99.90;;;;;;5121335;27;20042;-77
2022/06/06 10:42:05;;;;;;;14.15;6.95;;;13.80;99.90;;;;;;5145426;27;20550;-76
2022/06/06 10:44:52;;;;;;;5.53;2.20;;;13.80;99.90;;;;;;5138350;27;20039;-80
2022/06/06 10:47:49;;;;;;;7.18;2.45;;;13.70;99.90;;;;;;5125583;27;20482;-72
2022/06/06 10:53:53;;;;;;;4.50;1.63;;;13.50;99.90;;;;;;5056110;28;20049;-71
2022/06/06 10:56:54;;;;;;;5.75;2.10;;;13.50;99.90;;;;;;5149633;27;20078;-72
2022/06/06 10:59:23;;;;;;;5.63;2.28;;;13.40;99.90;;;;;;5146457;27;20139;-72
2022/06/06 11:01:55;;;;;;;5.38;2.30;;;13.40;99.90;;;;;;5124984;27;20046;-72
2022/06/06 11:04:51;;;;;;;4.63;2.75;;;13.40;99.90;;;;;;5147054;27;20046;-73
2022/06/06 11:07:53;;;;;;;6.20;3.03;;;13.50;99.90;;;;;;5118683;27;20055;-75
2022/06/06 11:10:35;;;;;;;6.68;2.70;;;13.40;99.90;;;;;;5140619;27;20044;-73
2022/06/06 11:13:23;;;;;;;6.07;2.72;;;13.50;99.90;;;;;;5123831;27;20156;-72
2022/06/06 11:16:20;;;;;;;6.47;3.67;;;13.50;99.90;;;;;;5138612;27;20035;-80
2022/06/06 11:19:13;;;;;;;9.10;3.58;;;13.60;99.90;;;;;;5146234;27;20050;-75
2022/06/06 11:21:42;;;;;;;5.60;3.13;;;13.50;99.90;;;;;;5133860;27;20445;-72
2022/06/06 11:24:18;;;;;;;5.55;2.55;;;13.50;99.90;;;;;;5142647;27;20042;-79
2022/06/06 11:26:47;;;;;;;6.13;2.65;;;13.40;99.90;;;;;;5146114;27;20039;-75
2022/06/06 11:29:42;;;;;;;4.18;2.58;;;13.50;99.90;;;;;;5152368;27;20039;-73
2022/06/06 11:32:32;;;;;;;6.75;2.75;;;13.50;99.90;;;;;;5127492;27;20053;-73
2022/06/06 11:35:13;;;;;;;6.97;3.60;;;13.60;99.90;;;;;;5154624;27;20581;-74
2022/06/06 11:38:04;;;;;;;5.60;3.10;;;13.60;99.90;;;;;;5133336;27;20043;-72
2022/06/06 11:40:41;;;;;;;7.35;3.58;;;13.70;99.90;;;;;;5143364;27;20039;-71
2022/06/06 11:43:29;;;;;;;7.60;3.83;;;13.60;99.90;;;;;;5136113;27;20049;-72
2022/06/06 11:46:46;;;;;;;14.45;8.07;;;13.60;99.90;;;;;;5143739;27;20089;-70
2022/06/06 11:49:36;;;;;;;12.45;5.97;;;13.60;99.90;;;;;;5142749;27;20509;-71
2022/06/06 11:52:27;;;;;;;39.00;30.27;;;13.70;99.90;;;;;;5153714;27;20082;-71
2022/06/06 11:55:35;;;;;;;74.32;53.00;;;13.70;99.90;;;;;;5127097;27;20054;-69
2022/06/06 11:58:19;;;;;;;15.35;12.15;;;13.60;99.90;;;;;;5043011;27;20057;-72
2022/06/06 12:01:12;;;;;;;49.30;36.17;;;13.70;99.90;;;;;;5122834;27;20062;-72
2022/06/06 12:04:16;;;;;;;11.02;7.93;;;13.60;99.90;;;;;;5116217;27;20046;-73
2022/06/06 12:07:00;;;;;;;22.27;14.05;;;13.70;99.90;;;;;;5124298;27;20043;-72
2022/06/06 12:09:57;;;;;;;8.57;6.82;;;13.50;99.90;;;;;;5122078;27;20046;-72
2022/06/06 12:13:04;;;;;;;6.93;4.70;;;13.50;99.90;;;;;;5121350;27;20092;-73
2022/06/06 12:15:48;;;;;;;6.60;4.82;;;13.50;99.90;;;;;;5129032;27;20095;-71
2022/06/06 12:18:25;;;;;;;5.93;4.18;;;13.60;99.90;;;;;;5133172;27;20035;-74
2022/06/06 12:21:09;;;;;;;18.42;11.63;;;13.70;99.90;;;;;;5147150;27;20496;-73
2022/06/06 12:24:08;;;;;;;9.02;6.90;;;13.80;99.90;;;;;;5124276;27;20072;-73
2022/06/06 12:26:45;;;;;;;8.13;5.75;;;13.90;99.90;;;;;;5100660;27;20076;-75
2022/06/06 12:29:26;;;;;;;7.15;3.65;;;14.00;99.90;;;;;;5114449;27;20054;-71
2022/06/06 12:31:56;;;;;;;9.63;5.15;;;14.10;99.90;;;;;;5142989;27;20031;-74
2022/06/06 12:34:38;;;;;;;7.68;5.55;;;14.20;99.90;;;;;;5143815;27;20117;-73
2022/06/06 12:37:14;;;;;;;5.97;3.08;;;14.20;99.90;;;;;;5116551;27;20494;-74
2022/06/06 12:39:54;;;;;;;4.85;2.95;;;14.20;99.90;;;;;;5137018;27;20789;-72
2022/06/06 12:42:23;;;;;;;4.28;2.30;;;14.30;99.90;;;;;;5142314;27;20051;-71
2022/06/06 12:45:07;;;;;;;4.13;2.28;;;14.20;99.90;;;;;;5122564;27;20100;-72
2022/06/06 12:47:58;;;;;;;4.05;1.92;;;14.10;99.90;;;;;;5131631;27;20039;-72
2022/06/06 12:50:44;;;;;;;3.70;1.92;;;14.20;99.90;;;;;;5120966;27;20069;-74
2022/06/06 12:53:49;;;;;;;2.97;1.30;;;14.20;99.90;;;;;;5148228;27;20042;-75
2022/06/06 12:56:36;;;;;;;3.53;1.17;;;14.10;99.90;;;;;;5138002;27;20047;-72
2022/06/06 12:59:20;;;;;;;2.67;1.00;;;14.20;99.90;;;;;;5117142;27;20088;-73
2022/06/06 13:02:10;;;;;;;5.15;1.50;;;14.30;99.90;;;;;;5119908;27;20146;-74
2022/06/06 13:05:02;;;;;;;2.20;1.00;;;14.30;99.90;;;;;;5143119;27;20537;-73
2022/06/06 13:07:48;;;;;;;2.60;0.93;;;14.20;99.90;;;;;;5124308;27;20058;-72
2022/06/06 13:10:34;;;;;;;1.13;0.73;;;14.30;99.90;;;;;;5144763;27;20035;-72
2022/06/06 13:13:05;;;;;;;2.23;0.90;;;14.30;99.90;;;;;;5131419;27;20050;-73
2022/06/06 13:16:13;;;;;;;1.40;0.80;;;14.30;99.90;;;;;;5119142;27;20674;-71
2022/06/06 13:19:05;;;;;;;3.88;1.30;;;14.20;99.90;;;;;;5125641;27;20035;-73
2022/06/06 13:22:03;;;;;;;2.58;0.82;;;14.20;99.90;;;;;;5143501;27;20043;-72
2022/06/06 13:24:50;;;;;;;1.45;0.70;;;14.20;99.90;;;;;;5086253;27;20050;-72
2022/06/06 13:27:29;;;;;;;1.75;0.90;;;14.10;99.90;;;;;;5120335;27;20081;-72
2022/06/06 13:29:55;;;;;;;2.53;1.25;;;14.10;99.90;;;;;;5140503;27;20385;-72
2022/06/06 13:32:32;;;;;;;7.88;4.85;;;14.10;99.90;;;;;;5148171;27;20072;-73
2022/06/06 13:35:16;;;;;;;7.10;2.60;;;14.10;99.90;;;;;;5136209;27;20043;-75
2022/06/06 13:37:48;;;;;;;3.33;1.60;;;14.10;99.90;;;;;;5119587;27;20047;-72
2022/06/06 13:40:28;;;;;;;2.40;1.17;;;14.00;99.90;;;;;;5118866;27;20054;-74
2022/06/06 13:43:26;;;;;;;3.60;1.48;;;14.10;99.90;;;;;;5140030;27;20512;-73
2022/06/06 13:46:13;;;;;;;4.97;1.40;;;14.10;99.90;;;;;;5142292;27;20047;-71
2022/06/06 13:48:51;;;;;;;4.57;1.60;;;14.00;99.90;;;;;;5123942;27;20405;-76
2022/06/06 13:51:49;;;;;;;5.35;1.52;;;14.00;99.90;;;;;;5132955;27;20050;-74
2022/06/06 13:54:34;;;;;;;3.88;1.92;;;14.00;99.90;;;;;;5115692;27;20058;-76
2022/06/06 13:57:03;;;;;;;3.85;1.77;;;14.00;99.90;;;;;;5122068;27;20043;-75
2022/06/06 13:59:44;;;;;;;4.07;1.70;;;13.90;99.90;;;;;;5119595;27;20034;-78
2022/06/06 14:02:43;;;;;;;3.30;1.85;;;13.80;99.90;;;;;;5147132;27;20053;-74
2022/06/06 14:05:15;;;;;;;3.10;1.50;;;13.80;99.90;;;;;;5119459;27;20523;-73
2022/06/06 14:08:03;;;;;;;2.33;1.00;;;14.20;99.90;;;;;;5109316;27;20402;-77
2022/06/06 14:10:59;;;;;;;2.30;1.20;;;13.80;99.90;;;;;;5124481;27;20047;-75
2022/06/06 14:13:54;;;;;;;3.17;1.10;;;13.80;99.90;;;;;;5132850;27;20129;-75
2022/06/06 14:16:26;;;;;;;3.63;1.08;;;13.70;99.90;;;;;;5124717;27;20042;-77